createdAt,value
2023-02-15T00:00:20.310Z,56.92
2023-02-15T00:02:47.174Z,61.05
2023-02-15T00:05:13.965Z,60.72
2023-02-15T00:07:40.679Z,61.05
2023-02-15T00:10:08.460Z,60.30
2023-02-15T00:12:35.154Z,60.75
2023-02-15T00:15:01.814Z,61.95
2023-02-15T00:17:29.831Z,62.08
2023-02-15T00:19:56.549Z,61.08
2023-02-15T00:22:23.213Z,65.15
2023-02-15T00:24:49.950Z,63.25
2023-02-15T00:27:16.633Z,63.28
2023-02-15T00:29:43.406Z,65.63
2023-02-15T00:32:10.405Z,64.60
2023-02-15T00:34:37.095Z,65.45
2023-02-15T00:37:03.734Z,66.57
2023-02-15T00:39:30.451Z,62.28
2023-02-15T00:41:57.128Z,72.78
2023-02-15T00:44:23.892Z,65.97
2023-02-15T00:46:50.654Z,71.00
2023-02-15T00:49:17.316Z,66.85
2023-02-15T00:51:44.028Z,68.70
2023-02-15T00:54:10.721Z,65.93
2023-02-15T00:56:37.403Z,65.85
2023-02-15T00:59:04.167Z,70.03
2023-02-15T01:01:31.024Z,71.05
2023-02-15T01:03:57.868Z,72.65
2023-02-15T01:06:24.585Z,71.35
2023-02-15T01:08:51.268Z,69.82
2023-02-15T01:11:21.962Z,71.35
2023-02-15T01:13:59.240Z,74.57
2023-02-15T01:16:28.375Z,78.03
2023-02-15T01:18:55.182Z,73.50
2023-02-15T01:21:24.259Z,73.40
2023-02-15T01:23:50.987Z,79.60
2023-02-15T01:26:18.007Z,73.78
2023-02-15T01:28:45.594Z,78.32
2023-02-15T01:31:15.028Z,75.88
2023-02-15T01:33:42.624Z,74.70
2023-02-15T01:36:09.543Z,72.18
2023-02-15T01:38:36.993Z,72.80
2023-02-15T01:41:03.778Z,71.60
2023-02-15T01:43:44.123Z,77.75
2023-02-15T01:46:13.798Z,75.20
2023-02-15T01:48:48.110Z,72.75
2023-02-15T01:51:21.569Z,76.18
2023-02-15T01:53:54.519Z,74.15
2023-02-15T01:56:25.956Z,73.22
2023-02-15T01:58:55.589Z,75.63
2023-02-15T02:01:23.282Z,76.07
2023-02-15T02:04:14.411Z,82.00
2023-02-15T02:06:41.273Z,76.85
2023-02-15T02:09:09.027Z,81.20
2023-02-15T02:11:36.145Z,80.53
2023-02-15T02:14:03.060Z,81.13
2023-02-15T02:16:34.019Z,83.22
2023-02-15T02:19:12.833Z,82.00
2023-02-15T02:22:00.715Z,86.55
2023-02-15T02:24:55.476Z,89.40
2023-02-15T02:28:06.511Z,85.15
2023-02-15T02:30:57.969Z,88.40
2023-02-15T02:33:30.860Z,90.43
2023-02-15T02:36:19.512Z,93.13
2023-02-15T02:38:46.137Z,94.78
2023-02-15T02:41:46.373Z,94.25
2023-02-15T02:44:18.339Z,101.63
2023-02-15T02:47:16.311Z,93.93
2023-02-15T02:49:44.490Z,95.18
2023-02-15T02:52:35.678Z,103.72
2023-02-15T02:55:06.863Z,110.32
2023-02-15T02:57:35.949Z,112.78
2023-02-15T03:00:06.452Z,110.82
2023-02-15T03:02:38.383Z,119.60
2023-02-15T03:05:09.739Z,121.28
2023-02-15T03:07:37.599Z,115.90
2023-02-15T03:10:06.945Z,121.10
2023-02-15T03:12:38.312Z,128.52
2023-02-15T03:15:10.179Z,119.43
2023-02-15T03:17:40.889Z,122.10
2023-02-15T03:20:37.321Z,115.35
2023-02-15T03:23:11.792Z,120.47
2023-02-15T03:25:42.579Z,124.30
2023-02-15T03:28:14.204Z,123.40
2023-02-15T03:30:45.962Z,123.35
2023-02-15T03:33:15.175Z,124.35
2023-02-15T03:35:55.627Z,120.05
2023-02-15T03:38:30.623Z,126.72
2023-02-15T03:41:00.396Z,128.48
2023-02-15T03:43:40.493Z,137.68
2023-02-15T03:46:16.352Z,130.00
2023-02-15T03:48:54.095Z,132.07
2023-02-15T03:51:29.036Z,136.85
2023-02-15T03:53:57.571Z,129.20
2023-02-15T03:56:24.869Z,131.05
2023-02-15T03:58:51.646Z,127.38
2023-02-15T04:01:31.352Z,123.05
2023-02-15T04:04:08.606Z,122.53
2023-02-15T04:06:35.291Z,122.78
2023-02-15T04:09:01.970Z,124.85
2023-02-15T04:11:28.640Z,120.65
2023-02-15T04:13:55.331Z,124.63
2023-02-15T04:16:22.060Z,127.22
2023-02-15T04:18:48.907Z,123.57
2023-02-15T04:21:15.790Z,119.20
2023-02-15T04:23:42.446Z,125.30
2023-02-15T04:26:09.098Z,121.68
2023-02-15T04:28:35.798Z,115.57
2023-02-15T04:31:02.502Z,118.35
2023-02-15T04:33:29.203Z,119.18
2023-02-15T04:35:55.887Z,118.45
2023-02-15T04:38:22.831Z,114.70
2023-02-15T04:40:53.247Z,112.38
2023-02-15T04:43:20.359Z,116.28
2023-02-15T04:45:50.911Z,113.25
2023-02-15T04:48:18.766Z,118.40
2023-02-15T04:50:45.926Z,113.95
2023-02-15T04:53:12.785Z,110.70
2023-02-15T04:55:39.513Z,114.88
2023-02-15T04:58:06.247Z,114.43
2023-02-15T05:00:32.962Z,113.15
2023-02-15T05:02:59.718Z,113.90
2023-02-15T05:05:26.595Z,112.65
2023-02-15T05:07:53.463Z,119.72
2023-02-15T05:10:20.404Z,119.30
2023-02-15T05:12:47.129Z,117.65
2023-02-15T05:15:13.905Z,113.35
2023-02-15T05:17:40.777Z,111.35
2023-02-15T05:20:07.948Z,119.22
2023-02-15T05:22:34.716Z,118.03
2023-02-15T05:25:01.421Z,128.63
2023-02-15T05:27:28.194Z,109.80
2023-02-15T05:29:54.896Z,122.07
2023-02-15T05:32:21.771Z,115.25
2023-02-15T05:34:48.513Z,111.90
2023-02-15T05:37:15.217Z,112.53
2023-02-15T05:39:41.884Z,113.88
2023-02-15T05:42:08.600Z,111.07
2023-02-15T05:44:35.278Z,123.20
2023-02-15T05:47:02.330Z,120.00
2023-02-15T05:49:29.146Z,110.95
2023-02-15T05:51:55.822Z,112.70
2023-02-15T05:54:22.480Z,118.63
2023-02-15T05:56:49.165Z,125.57
2023-02-15T05:59:15.862Z,132.75
2023-02-15T06:01:42.519Z,124.20
2023-02-15T06:04:09.241Z,136.00
2023-02-15T06:06:35.939Z,132.63
2023-02-15T06:09:02.889Z,133.73
2023-02-15T06:11:29.629Z,135.05
2023-02-15T06:13:56.321Z,137.23
2023-02-15T06:16:23.348Z,132.98
2023-02-15T06:18:51.347Z,149.77
2023-02-15T06:21:19.039Z,141.30
2023-02-15T06:23:45.756Z,142.80
2023-02-15T06:26:12.538Z,136.90
2023-02-15T06:28:39.218Z,134.25
2023-02-15T06:31:06.048Z,147.10
2023-02-15T06:33:32.761Z,137.10
2023-02-15T06:35:59.689Z,148.23
2023-02-15T06:38:26.524Z,153.73
2023-02-15T06:40:53.190Z,228.45
2023-02-15T06:43:19.860Z,187.50
2023-02-15T06:45:46.547Z,239.57
2023-02-15T06:48:13.300Z,176.73
2023-02-15T06:50:40.041Z,187.43
2023-02-15T06:53:06.905Z,227.20
2023-02-15T06:55:33.644Z,219.93
2023-02-15T06:58:00.351Z,430.77
2023-02-15T07:00:27.246Z,202.88
2023-02-15T07:02:59.067Z,261.00
2023-02-15T07:05:27.100Z,177.05
2023-02-15T07:07:54.036Z,380.15
2023-02-15T07:10:20.790Z,271.33
2023-02-15T07:12:47.646Z,180.73
2023-02-15T07:15:17.080Z,171.90
2023-02-15T07:17:45.022Z,206.90
2023-02-15T07:20:17.413Z,182.82
2023-02-15T07:22:44.541Z,229.35
2023-02-15T07:25:12.567Z,190.00
2023-02-15T07:27:40.211Z,164.70
2023-02-15T07:30:08.968Z,164.43
2023-02-15T07:32:35.852Z,173.27
2023-02-15T07:35:02.546Z,206.45
2023-02-15T07:37:29.593Z,171.32
2023-02-15T07:39:56.386Z,170.43
2023-02-15T07:42:23.209Z,188.77
2023-02-15T07:44:50.156Z,200.52
2023-02-15T07:47:16.969Z,174.20
2023-02-15T07:49:43.711Z,204.43
2023-02-15T07:52:10.415Z,203.40
2023-02-15T07:54:37.139Z,198.00
2023-02-15T07:57:03.963Z,175.88
2023-02-15T07:59:30.664Z,172.73
2023-02-15T08:01:57.610Z,213.00
2023-02-15T08:04:24.900Z,168.52
2023-02-15T08:06:54.275Z,148.35
2023-02-15T08:09:21.583Z,144.05
2023-02-15T08:11:48.742Z,163.95
2023-02-15T08:14:24.519Z,151.05
2023-02-15T08:16:53.184Z,166.93
2023-02-15T08:19:21.138Z,173.95
2023-02-15T08:21:50.319Z,174.45
2023-02-15T08:24:19.691Z,142.10
2023-02-15T08:26:46.774Z,129.65
2023-02-15T08:29:19.355Z,386.38
2023-02-15T08:31:46.907Z,163.93
2023-02-15T08:34:16.888Z,179.85
2023-02-15T08:36:44.296Z,129.65
2023-02-15T08:39:11.361Z,131.40
2023-02-15T08:41:39.334Z,130.73
2023-02-15T08:44:08.365Z,126.45
2023-02-15T08:46:37.636Z,143.07
2023-02-15T08:49:04.836Z,127.30
2023-02-15T08:51:34.771Z,134.32
2023-02-15T08:54:04.043Z,123.95
2023-02-15T08:56:34.817Z,118.25
2023-02-15T08:59:02.650Z,122.07
2023-02-15T09:01:32.070Z,124.20
2023-02-15T09:04:07.095Z,117.43
2023-02-15T09:06:34.117Z,119.25
2023-02-15T09:09:00.810Z,114.50
2023-02-15T09:11:29.791Z,115.25
2023-02-15T09:14:08.400Z,111.13
2023-02-15T09:16:37.373Z,108.72
2023-02-15T09:19:06.164Z,110.88
2023-02-15T09:21:37.711Z,110.28
2023-02-15T09:24:07.633Z,109.90
2023-02-15T09:26:37.473Z,111.20
2023-02-15T09:29:04.946Z,118.20
2023-02-15T09:31:35.161Z,117.55
2023-02-15T09:34:02.102Z,105.70
2023-02-15T09:36:35.166Z,95.40
2023-02-15T09:39:13.162Z,103.00
2023-02-15T09:42:17.487Z,101.18
2023-02-15T09:45:03.026Z,100.20
2023-02-15T09:47:32.522Z,96.68
2023-02-15T09:50:36.380Z,106.50
2023-02-15T09:53:30.495Z,97.63
2023-02-15T09:56:21.139Z,82.45
2023-02-15T09:59:37.238Z,82.38
2023-02-15T10:02:16.942Z,84.72
2023-02-15T10:05:14.803Z,82.55
2023-02-15T10:07:57.309Z,84.95
2023-02-15T10:10:50.290Z,79.40
2023-02-15T10:13:44.699Z,87.25
2023-02-15T10:16:40.685Z,82.63
2023-02-15T10:19:12.952Z,79.82
2023-02-15T10:21:51.926Z,79.18
2023-02-15T10:24:55.414Z,83.30
2023-02-15T10:27:22.621Z,79.22
2023-02-15T10:29:59.957Z,75.38
2023-02-15T10:32:28.518Z,76.22
2023-02-15T10:35:35.716Z,73.65
2023-02-15T10:38:02.331Z,78.95
2023-02-15T10:40:43.923Z,75.75
2023-02-15T10:43:44.476Z,80.03
2023-02-15T10:46:33.369Z,79.22
2023-02-15T10:49:23.159Z,87.97
2023-02-15T10:52:27.354Z,79.10
2023-02-15T10:55:21.782Z,83.85
2023-02-15T10:58:22.595Z,75.60
2023-02-15T11:01:21.568Z,75.13
2023-02-15T11:03:57.221Z,81.10
2023-02-15T11:09:02.217Z,78.90
2023-02-15T11:11:35.778Z,84.13
2023-02-15T11:14:11.059Z,81.38
2023-02-15T11:16:40.901Z,79.00
2023-02-15T11:19:15.077Z,78.03
2023-02-15T11:21:46.581Z,84.57
2023-02-15T11:24:16.702Z,78.07
2023-02-15T11:27:01.046Z,78.88
2023-02-15T11:29:30.751Z,77.88
2023-02-15T11:32:29.394Z,74.50
2023-02-15T11:35:10.921Z,69.95
2023-02-15T11:38:21.128Z,75.43
2023-02-15T11:40:56.925Z,76.15
2023-02-15T11:43:47.346Z,68.22
2023-02-15T11:46:14.192Z,67.97
2023-02-15T11:48:41.452Z,66.97
2023-02-15T11:51:13.262Z,65.72
2023-02-15T11:53:40.686Z,66.80
2023-02-15T11:56:15.270Z,63.53
2023-02-15T11:58:48.896Z,68.28
2023-02-15T12:01:32.981Z,69.82
2023-02-15T12:04:46.448Z,63.65
2023-02-15T12:07:33.144Z,55.67
2023-02-15T12:10:20.095Z,56.30
2023-02-15T12:12:46.958Z,50.25
2023-02-15T12:15:14.853Z,52.15
2023-02-15T12:17:49.991Z,53.08
2023-02-15T12:20:16.657Z,58.33
2023-02-15T12:22:59.444Z,52.20
2023-02-15T12:25:43.150Z,56.03
2023-02-15T12:28:27.915Z,51.40
2023-02-15T12:30:56.298Z,52.97
2023-02-15T12:33:35.140Z,57.83
2023-02-15T12:36:10.346Z,51.55
2023-02-15T12:38:37.140Z,48.83
2023-02-15T12:41:06.827Z,53.28
2023-02-15T12:43:38.321Z,52.80
2023-02-15T12:46:28.166Z,54.03
2023-02-15T12:49:08.707Z,50.85
2023-02-15T12:51:59.914Z,51.20
2023-02-15T12:54:31.140Z,53.05
2023-02-15T12:56:58.902Z,47.97
2023-02-15T12:59:26.342Z,45.47
2023-02-15T13:01:54.109Z,44.97
2023-02-15T13:04:30.037Z,45.92
2023-02-15T13:07:00.543Z,48.95
2023-02-15T13:09:33.545Z,54.00
2023-02-15T13:12:28.421Z,51.53
2023-02-15T13:14:56.681Z,49.50
2023-02-15T13:17:34.486Z,45.63
2023-02-15T13:20:28.689Z,42.35
2023-02-15T13:23:00.574Z,47.63
2023-02-15T13:25:31.950Z,48.67
2023-02-15T13:28:03.337Z,52.05
2023-02-15T13:30:42.989Z,50.72
2023-02-15T13:33:20.626Z,45.83
2023-02-15T13:35:58.852Z,53.05
2023-02-15T13:38:34.680Z,39.58
2023-02-15T13:41:10.351Z,46.25
2023-02-15T13:44:00.432Z,40.50
2023-02-15T13:46:32.966Z,39.10
2023-02-15T13:49:29.251Z,41.13
2023-02-15T13:52:23.934Z,41.58
2023-02-15T13:55:32.000Z,43.00
2023-02-15T13:58:15.352Z,43.00
2023-02-15T14:01:19.938Z,41.35
2023-02-15T14:03:52.867Z,42.83
2023-02-15T14:06:49.136Z,40.80
2023-02-15T14:09:38.414Z,45.80
2023-02-15T14:12:32.764Z,38.38
2023-02-15T14:15:11.731Z,40.17
2023-02-15T14:17:56.214Z,38.17
2023-02-15T14:20:44.809Z,39.67
2023-02-15T14:23:25.972Z,44.67
2023-02-15T14:26:00.388Z,40.10
2023-02-15T14:28:52.161Z,41.42
2023-02-15T14:31:22.197Z,38.72
2023-02-15T14:33:55.918Z,42.20
2023-02-15T14:36:25.610Z,47.15
2023-02-15T14:39:09.269Z,40.35
2023-02-15T14:41:48.809Z,39.28
2023-02-15T14:44:56.773Z,41.10
2023-02-15T14:47:29.990Z,39.97
2023-02-15T14:49:57.047Z,39.63
2023-02-15T14:52:23.898Z,43.58
2023-02-15T14:54:50.635Z,42.13
2023-02-15T14:57:17.288Z,42.17
2023-02-15T14:59:57.232Z,43.50
2023-02-15T15:02:50.577Z,42.95
2023-02-15T15:05:33.274Z,43.65
2023-02-15T15:08:02.222Z,44.15
2023-02-15T15:10:38.959Z,38.33
2023-02-15T15:13:32.884Z,42.25
2023-02-15T15:16:28.576Z,45.35
2023-02-15T15:18:56.040Z,40.33
2023-02-15T15:21:47.157Z,43.42
2023-02-15T15:24:41.392Z,43.83
2023-02-15T15:27:43.181Z,42.10
2023-02-15T15:30:16.137Z,40.50
2023-02-15T15:33:12.467Z,40.67
2023-02-15T15:35:59.805Z,36.97
2023-02-15T15:39:03.716Z,39.47
2023-02-15T15:41:49.522Z,41.55
2023-02-15T15:44:46.741Z,39.90
2023-02-15T15:48:01.946Z,42.65
2023-02-15T15:50:33.679Z,43.70
2023-02-15T15:53:02.795Z,42.92
2023-02-15T15:55:33.061Z,38.70
2023-02-15T15:58:06.803Z,42.15
2023-02-15T16:00:50.995Z,41.20
2023-02-15T16:03:23.997Z,48.00
2023-02-15T16:05:51.564Z,43.83
2023-02-15T16:08:37.006Z,47.97
2023-02-15T16:11:24.884Z,52.88
2023-02-15T16:13:52.743Z,46.58
2023-02-15T16:16:25.371Z,44.80
2023-02-15T16:18:53.025Z,59.90
2023-02-15T16:21:24.247Z,56.70
2023-02-15T16:23:54.456Z,51.40
2023-02-15T16:26:42.407Z,49.08
2023-02-15T16:29:27.127Z,48.22
2023-02-15T16:32:05.475Z,51.38
2023-02-15T16:34:32.502Z,60.42
2023-02-15T16:37:16.146Z,53.20
2023-02-15T16:39:45.063Z,58.13
2023-02-15T16:42:14.393Z,57.20
2023-02-15T16:44:41.651Z,51.80
2023-02-15T16:47:26.249Z,46.38
2023-02-15T16:49:55.052Z,48.33
2023-02-15T16:52:25.510Z,53.38
2023-02-15T16:54:57.141Z,54.38
2023-02-15T16:57:28.012Z,56.85
2023-02-15T16:59:58.336Z,48.00
2023-02-15T17:02:49.722Z,51.05
2023-02-15T17:05:18.400Z,52.55
2023-02-15T17:08:03.326Z,63.38
2023-02-15T17:10:32.013Z,65.88
2023-02-15T17:13:04.400Z,67.20
2023-02-15T17:15:32.785Z,69.63
2023-02-15T17:18:20.265Z,48.80
2023-02-15T17:20:49.271Z,48.15
2023-02-15T17:23:34.263Z,44.85
2023-02-15T17:26:11.383Z,47.80
2023-02-15T17:28:38.305Z,47.33
2023-02-15T17:31:08.298Z,61.03
2023-02-15T17:33:35.180Z,61.95
2023-02-15T17:36:16.886Z,62.75
2023-02-15T17:38:58.843Z,62.72
2023-02-15T17:41:26.302Z,61.25
2023-02-15T17:43:52.957Z,60.80
2023-02-15T17:46:20.340Z,67.57
2023-02-15T17:48:48.694Z,67.50
2023-02-15T17:51:16.750Z,63.42
2023-02-15T17:53:44.209Z,65.15
2023-02-15T17:56:10.927Z,59.90
2023-02-15T17:58:39.371Z,65.05
2023-02-15T18:01:17.708Z,76.70
2023-02-15T18:03:50.652Z,65.10
2023-02-15T18:06:17.388Z,59.20
2023-02-15T18:08:44.499Z,71.57
2023-02-15T18:11:11.509Z,73.75
2023-02-15T18:13:38.263Z,65.65
2023-02-15T18:16:05.085Z,72.88
2023-02-15T18:18:31.801Z,70.40
2023-02-15T18:20:58.484Z,69.05
2023-02-15T18:23:25.140Z,64.80
2023-02-15T18:25:51.791Z,71.78
2023-02-15T18:28:18.435Z,62.67
2023-02-15T18:30:45.196Z,67.15
2023-02-15T18:33:45.424Z,59.60
2023-02-15T18:36:18.326Z,65.45
2023-02-15T18:38:45.019Z,64.65
2023-02-15T18:41:18.158Z,67.53
2023-02-15T18:43:45.692Z,80.85
2023-02-15T18:46:12.728Z,59.17
2023-02-15T18:48:39.436Z,56.25
2023-02-15T18:51:14.182Z,60.72
2023-02-15T18:53:41.122Z,49.13
2023-02-15T18:56:16.169Z,53.85
2023-02-15T18:58:42.999Z,61.05
2023-02-15T19:01:18.011Z,70.30
2023-02-15T19:03:49.504Z,77.18
2023-02-15T19:06:20.104Z,72.15
2023-02-15T19:08:49.040Z,75.05
2023-02-15T19:11:24.072Z,72.30
2023-02-15T19:13:54.288Z,79.55
2023-02-15T19:16:31.346Z,76.57
2023-02-15T19:18:58.162Z,86.65
2023-02-15T19:21:26.874Z,78.13
2023-02-15T19:24:06.996Z,79.82
2023-02-15T19:26:45.262Z,74.35
2023-02-15T19:29:15.798Z,74.40
2023-02-15T19:31:43.222Z,69.30
2023-02-15T19:34:15.252Z,68.75
2023-02-15T19:36:43.875Z,74.43
2023-02-15T19:39:21.458Z,74.22
2023-02-15T19:41:48.226Z,70.68
2023-02-15T19:44:14.923Z,67.05
2023-02-15T19:46:41.671Z,73.03
2023-02-15T19:49:09.763Z,70.80
2023-02-15T19:51:37.001Z,84.53
2023-02-15T19:54:19.690Z,87.18
2023-02-15T19:56:46.389Z,88.13
2023-02-15T19:59:27.030Z,91.30
2023-02-15T20:01:54.377Z,84.47
2023-02-15T20:04:21.219Z,69.63
2023-02-15T20:06:50.248Z,77.13
2023-02-15T20:09:30.733Z,77.40
2023-02-15T20:11:57.454Z,76.85
2023-02-15T20:14:24.330Z,71.47
2023-02-15T20:16:51.222Z,76.22
2023-02-15T20:19:18.017Z,72.63
2023-02-15T20:21:46.518Z,69.68
2023-02-15T20:24:19.864Z,75.25
2023-02-15T20:26:46.738Z,70.70
2023-02-15T20:29:14.801Z,75.60
2023-02-15T20:31:42.786Z,73.50
2023-02-15T20:34:09.839Z,75.47
2023-02-15T20:36:37.410Z,69.97
2023-02-15T20:39:12.164Z,75.45
2023-02-15T20:41:38.837Z,66.70
2023-02-15T20:44:30.852Z,71.22
2023-02-15T20:46:58.994Z,65.63
2023-02-15T20:49:27.287Z,62.97
2023-02-15T20:51:55.989Z,68.90
2023-02-15T20:54:30.533Z,66.22
2023-02-15T20:56:57.248Z,59.50
2023-02-15T20:59:29.036Z,62.22
2023-02-15T21:01:59.457Z,68.25
2023-02-15T21:04:30.479Z,64.05
2023-02-15T21:06:57.353Z,65.68
2023-02-15T21:09:24.025Z,64.30
2023-02-15T21:11:52.900Z,62.30
2023-02-15T21:14:21.750Z,65.10
2023-02-15T21:16:49.532Z,61.53
2023-02-15T21:19:20.138Z,64.95
2023-02-15T21:21:48.372Z,67.40
2023-02-15T21:24:25.517Z,62.78
2023-02-15T21:26:52.828Z,59.63
2023-02-15T21:29:24.846Z,61.83
2023-02-15T21:31:52.362Z,65.78
2023-02-15T21:34:19.550Z,61.17
2023-02-15T21:36:48.384Z,68.80
2023-02-15T21:39:23.656Z,61.72
2023-02-15T21:41:52.327Z,67.25
2023-02-15T21:44:21.928Z,57.33
2023-02-15T21:46:48.735Z,61.22
2023-02-15T21:49:15.448Z,65.47
2023-02-15T21:51:42.200Z,64.82
2023-02-15T21:54:12.521Z,67.25
2023-02-15T21:56:39.591Z,61.50
2023-02-15T21:59:14.189Z,65.78
2023-02-15T22:01:44.551Z,71.75
2023-02-15T22:04:22.453Z,62.88
2023-02-15T22:06:49.234Z,55.63
2023-02-15T22:09:25.018Z,59.92
2023-02-15T22:11:52.525Z,61.22
2023-02-15T22:14:41.503Z,57.03
2023-02-15T22:17:23.167Z,58.45
2023-02-15T22:19:50.504Z,55.60
2023-02-15T22:22:17.681Z,55.35
2023-02-15T22:24:45.242Z,61.05
2023-02-15T22:27:22.084Z,52.58
2023-02-15T22:29:49.948Z,57.75
2023-02-15T22:32:24.397Z,58.42
2023-02-15T22:34:52.956Z,60.83
2023-02-15T22:37:20.631Z,59.20
2023-02-15T22:39:47.359Z,53.88
2023-02-15T22:42:24.353Z,56.30
2023-02-15T22:44:56.782Z,51.45
2023-02-15T22:47:26.537Z,54.90
2023-02-15T22:49:53.340Z,54.67
2023-02-15T22:52:20.971Z,56.35
2023-02-15T22:54:47.687Z,55.63
2023-02-15T22:57:29.167Z,56.53
2023-02-15T22:59:56.534Z,54.55
2023-02-15T23:02:23.481Z,53.38
2023-02-15T23:04:53.175Z,52.63
2023-02-15T23:07:20.148Z,47.80
2023-02-15T23:09:46.810Z,49.67
2023-02-15T23:12:28.493Z,50.80
2023-02-15T23:14:56.797Z,51.75
2023-02-15T23:17:23.470Z,52.75
2023-02-15T23:19:50.152Z,52.63
2023-02-15T23:22:18.163Z,52.80
2023-02-15T23:24:50.053Z,49.03
2023-02-15T23:27:18.121Z,47.95
2023-02-15T23:29:45.133Z,50.15
2023-02-15T23:32:15.612Z,43.70
2023-02-15T23:34:43.362Z,43.78
2023-02-15T23:37:14.305Z,41.40
2023-02-15T23:39:41.070Z,40.85
2023-02-15T23:42:14.686Z,43.95
2023-02-15T23:44:43.556Z,39.15
2023-02-15T23:47:32.333Z,43.88
2023-02-15T23:49:58.989Z,42.05
2023-02-15T23:52:25.692Z,41.80
2023-02-15T23:54:52.394Z,44.38
2023-02-15T23:57:19.079Z,42.17
2023-02-15T23:59:45.763Z,40.10
